sensor_id;sensor_type;location;lat;lon;timestamp;temperature;humidity
13369;DHT22;6753;52.520;13.450;2023-03-21T00:00:02;19.10;57.20
13369;DHT22;6753;52.520;13.450;2023-03-21T00:00:14;19.20;57.40
13369;DHT22;6753;52.520;13.450;2023-03-21T00:00:25;19.10;57.20
13369;DHT22;6753;52.520;13.450;2023-03-21T00:00:37;19.20;57.30
13369;DHT22;6753;52.520;13.450;2023-03-21T00:00:52;19.20;57.30
13369;DHT22;6753;52.520;13.450;2023-03-21T00:01:04;21.20;60.10
13369;DHT22;6753;52.520;13.450;2023-03-21T00:01:16;19.20;57.30
13369;DHT22;6753;52.520;13.450;2023-03-21T00:01:27;19.20;57.30
13369;DHT22;6753;52.520;13.450;2023-03-21T00:01:38;20.60;59.20
13369;DHT22;6753;52.520;13.450;2023-03-21T00:01:49;19.20;57.50
13369;DHT22;6753;52.520;13.450;2023-03-21T00:02:01;19.20;57.90
13369;DHT22;6753;52.520;13.450;2023-03-21T00:02:12;19.20;57.70
13369;DHT22;6753;52.520;13.450;2023-03-21T00:02:23;19.20;57.70
13369;DHT22;6753;52.520;13.450;2023-03-21T00:02:34;19.20;57.60
13369;DHT22;6753;52.520;13.450;2023-03-21T00:02:46;19.20;57.60
13369;DHT22;6753;52.520;13.450;2023-03-21T00:02:56;19.20;57.50
13369;DHT22;6753;52.520;13.450;2023-03-21T00:03:07;19.20;57.40
13369;DHT22;6753;52.520;13.450;2023-03-21T00:03:18;20.50;59.40
13369;DHT22;6753;52.520;13.450;2023-03-21T00:03:29;19.20;57.60
13369;DHT22;6753;52.520;13.450;2023-03-21T00:03:40;20.30;59.10
13369;DHT22;6753;52.520;13.450;2023-03-21T00:03:52;19.20;57.30
13369;DHT22;6753;52.520;13.450;2023-03-21T00:04:03;21.30;60.10
13369;DHT22;6753;52.520;13.450;2023-03-21T00:04:14;19.20;57.30
13369;DHT22;6753;52.520;13.450;2023-03-21T00:04:26;20.70;59.60
13369;DHT22;6753;52.520;13.450;2023-03-21T00:04:37;19.20;57.50
13369;DHT22;6753;52.520;13.450;2023-03-21T00:04:48;19.20;57.50
13369;DHT22;6753;52.520;13.450;2023-03-21T00:04:59;19.20;57.40
13369;DHT22;6753;52.520;13.450;2023-03-21T00:05:10;19.20;57.30
13369;DHT22;6753;52.520;13.450;2023-03-21T00:05:21;19.20;57.30
13369;DHT22;6753;52.520;13.450;2023-03-21T00:05:32;19.20;57.20
13369;DHT22;6753;52.520;13.450;2023-03-21T00:05:43;19.20;57.20
13369;DHT22;6753;52.520;13.450;2023-03-21T00:06:03;19.20;57.30
13369;DHT22;6753;52.520;13.450;2023-03-21T00:06:14;19.20;57.30
13369;DHT22;6753;52.520;13.450;2023-03-21T00:06:25;20.40;58.90
13369;DHT22;6753;52.520;13.450;2023-03-21T00:06:35;19.20;57.00
13369;DHT22;6753;52.520;13.450;2023-03-21T00:06:47;19.20;57.00
13369;DHT22;6753;52.520;13.450;2023-03-21T00:06:58;19.20;57.00
13369;DHT22;6753;52.520;13.450;2023-03-21T00:07:09;19.20;57.00
13369;DHT22;6753;52.520;13.450;2023-03-21T00:07:20;19.20;56.90
13369;DHT22;6753;52.520;13.450;2023-03-21T00:07:31;19.20;56.80
13369;DHT22;6753;52.520;13.450;2023-03-21T00:07:42;19.20;56.80
13369;DHT22;6753;52.520;13.450;2023-03-21T00:07:53;19.10;57.30
13369;DHT22;6753;52.520;13.450;2023-03-21T00:08:07;19.20;57.00
13369;DHT22;6753;52.520;13.450;2023-03-21T00:08:19;19.10;56.80
13369;DHT22;6753;52.520;13.450;2023-03-21T00:08:30;19.20;56.80
13369;DHT22;6753;52.520;13.450;2023-03-21T00:08:42;20.00;58.10
13369;DHT22;6753;52.520;13.450;2023-03-21T00:08:54;19.80;57.90
13369;DHT22;6753;52.520;13.450;2023-03-21T00:09:05;19.10;56.50
13369;DHT22;6753;52.520;13.450;2023-03-21T00:09:16;19.10;56.20
13369;DHT22;6753;52.520;13.450;2023-03-21T00:09:27;19.10;56.20
13369;DHT22;6753;52.520;13.450;2023-03-21T00:09:38;19.10;56.40
13369;DHT22;6753;52.520;13.450;2023-03-21T00:09:48;19.10;56.50
13369;DHT22;6753;52.520;13.450;2023-03-21T00:09:59;19.10;56.60
13369;DHT22;6753;52.520;13.450;2023-03-21T00:10:11;19.00;56.20
13369;DHT22;6753;52.520;13.450;2023-03-21T00:10:22;19.10;56.40
13369;DHT22;6753;52.520;13.450;2023-03-21T00:10:33;19.10;56.40
13369;DHT22;6753;52.520;13.450;2023-03-21T00:10:44;19.10;56.20
13369;DHT22;6753;52.520;13.450;2023-03-21T00:10:55;19.00;55.80
13369;DHT22;6753;52.520;13.450;2023-03-21T00:11:08;19.00;55.40
13369;DHT22;6753;52.520;13.450;2023-03-21T00:11:19;20.90;58.30
13369;DHT22;6753;52.520;13.450;2023-03-21T00:11:31;19.00;55.40
13369;DHT22;6753;52.520;13.450;2023-03-21T00:11:41;19.00;55.30
13369;DHT22;6753;52.520;13.450;2023-03-21T00:11:53;20.10;56.90
13369;DHT22;6753;52.520;13.450;2023-03-21T00:12:04;19.00;55.10
13369;DHT22;6753;52.520;13.450;2023-03-21T00:12:16;19.00;54.90
13369;DHT22;6753;52.520;13.450;2023-03-21T00:12:30;19.70;55.80
13369;DHT22;6753;52.520;13.450;2023-03-21T00:12:41;18.90;54.50
13369;DHT22;6753;52.520;13.450;2023-03-21T00:12:52;18.90;54.40
13369;DHT22;6753;52.520;13.450;2023-03-21T00:13:07;19.00;54.60
13369;DHT22;6753;52.520;13.450;2023-03-21T00:13:18;18.90;54.80
13369;DHT22;6753;52.520;13.450;2023-03-21T00:13:31;18.90;55.10
13369;DHT22;6753;52.520;13.450;2023-03-21T00:13:42;20.00;56.60
13369;DHT22;6753;52.520;13.450;2023-03-21T00:13:53;18.90;55.20
13369;DHT22;6753;52.520;13.450;2023-03-21T00:14:07;20.40;57.40
13369;DHT22;6753;52.520;13.450;2023-03-21T00:14:20;18.90;54.30
13369;DHT22;6753;52.520;13.450;2023-03-21T00:14:30;18.90;53.90
13369;DHT22;6753;52.520;13.450;2023-03-21T00:14:42;18.90;53.60
13369;DHT22;6753;52.520;13.450;2023-03-21T00:14:54;18.90;53.40
13369;DHT22;6753;52.520;13.450;2023-03-21T00:15:06;18.90;53.70
13369;DHT22;6753;52.520;13.450;2023-03-21T00:15:17;18.90;53.70
13369;DHT22;6753;52.520;13.450;2023-03-21T00:15:28;20.80;55.80
13369;DHT22;6753;52.520;13.450;2023-03-21T00:15:39;18.90;52.80
13369;DHT22;6753;52.520;13.450;2023-03-21T00:16:03;18.80;52.50
13369;DHT22;6753;52.520;13.450;2023-03-21T00:16:16;18.90;52.40
13369;DHT22;6753;52.520;13.450;2023-03-21T00:16:29;18.90;52.10
13369;DHT22;6753;52.520;13.450;2023-03-21T00:16:40;18.90;51.80
13369;DHT22;6753;52.520;13.450;2023-03-21T00:16:50;18.80;51.40
13369;DHT22;6753;52.520;13.450;2023-03-21T00:17:02;18.80;51.40
13369;DHT22;6753;52.520;13.450;2023-03-21T00:17:13;18.80;51.30
13369;DHT22;6753;52.520;13.450;2023-03-21T00:17:25;20.40;53.50
13369;DHT22;6753;52.520;13.450;2023-03-21T00:17:42;18.80;51.10
13369;DHT22;6753;52.520;13.450;2023-03-21T00:17:54;18.80;50.80
13369;DHT22;6753;52.520;13.450;2023-03-21T00:18:07;18.80;50.80
13369;DHT22;6753;52.520;13.450;2023-03-21T00:18:21;18.80;50.60
13369;DHT22;6753;52.520;13.450;2023-03-21T00:18:32;18.80;50.60
13369;DHT22;6753;52.520;13.450;2023-03-21T00:18:47;18.80;51.50
13369;DHT22;6753;52.520;13.450;2023-03-21T00:19:01;18.80;51.40
13369;DHT22;6753;52.520;13.450;2023-03-21T00:19:15;18.80;50.90
13369;DHT22;6753;52.520;13.450;2023-03-21T00:19:26;18.80;50.50
13369;DHT22;6753;52.520;13.450;2023-03-21T00:19:38;18.80;50.50
13369;DHT22;6753;52.520;13.450;2023-03-21T00:19:52;18.80;50.60
13369;DHT22;6753;52.520;13.450;2023-03-21T00:20:05;18.80;50.90
13369;DHT22;6753;52.520;13.450;2023-03-21T00:20:16;18.80;51.30
13369;DHT22;6753;52.520;13.450;2023-03-21T00:20:27;20.60;54.10
13369;DHT22;6753;52.520;13.450;2023-03-21T00:20:37;18.80;51.00
13369;DHT22;6753;52.520;13.450;2023-03-21T00:20:56;19.90;52.10
13369;DHT22;6753;52.520;13.450;2023-03-21T00:21:10;18.70;52.10
13369;DHT22;6753;52.520;13.450;2023-03-21T00:21:22;18.70;52.60
13369;DHT22;6753;52.520;13.450;2023-03-21T00:21:37;18.70;52.80
13369;DHT22;6753;52.520;13.450;2023-03-21T00:21:52;19.00;53.40
13369;DHT22;6753;52.520;13.450;2023-03-21T00:22:05;20.40;55.10
13369;DHT22;6753;52.520;13.450;2023-03-21T00:22:15;18.70;52.30
13369;DHT22;6753;52.520;13.450;2023-03-21T00:22:27;18.70;52.20
13369;DHT22;6753;52.520;13.450;2023-03-21T00:22:37;20.00;53.90
13369;DHT22;6753;52.520;13.450;2023-03-21T00:22:48;18.70;51.70
13369;DHT22;6753;52.520;13.450;2023-03-21T00:22:59;19.40;52.50
13369;DHT22;6753;52.520;13.450;2023-03-21T00:23:10;18.70;51.40
13369;DHT22;6753;52.520;13.450;2023-03-21T00:23:21;18.70;51.20
13369;DHT22;6753;52.520;13.450;2023-03-21T00:23:33;18.70;50.60
13369;DHT22;6753;52.520;13.450;2023-03-21T00:23:44;18.70;50.30
13369;DHT22;6753;52.520;13.450;2023-03-21T00:23:55;20.10;52.30
13369;DHT22;6753;52.520;13.450;2023-03-21T00:24:06;18.70;49.90
13369;DHT22;6753;52.520;13.450;2023-03-21T00:24:17;18.70;49.60
13369;DHT22;6753;52.520;13.450;2023-03-21T00:24:28;20.20;51.60
13369;DHT22;6753;52.520;13.450;2023-03-21T00:24:40;18.70;49.10
13369;DHT22;6753;52.520;13.450;2023-03-21T00:24:50;19.60;50.30
13369;DHT22;6753;52.520;13.450;2023-03-21T00:25:01;19.50;50.10
13369;DHT22;6753;52.520;13.450;2023-03-21T00:25:12;18.70;48.80
13369;DHT22;6753;52.520;13.450;2023-03-21T00:25:23;18.70;49.20
13369;DHT22;6753;52.520;13.450;2023-03-21T00:25:34;20.30;51.80
13369;DHT22;6753;52.520;13.450;2023-03-21T00:25:44;18.70;49.30
13369;DHT22;6753;52.520;13.450;2023-03-21T00:25:56;18.70;49.00
13369;DHT22;6753;52.520;13.450;2023-03-21T00:26:06;18.70;50.20
13369;DHT22;6753;52.520;13.450;2023-03-21T00:26:19;18.60;50.80
13369;DHT22;6753;52.520;13.450;2023-03-21T00:26:32;18.70;51.20
13369;DHT22;6753;52.520;13.450;2023-03-21T00:26:43;20.10;53.50
13369;DHT22;6753;52.520;13.450;2023-03-21T00:26:53;18.90;51.60
13369;DHT22;6753;52.520;13.450;2023-03-21T00:27:04;19.00;52.00
13369;DHT22;6753;52.520;13.450;2023-03-21T00:27:16;18.70;51.90
13369;DHT22;6753;52.520;13.450;2023-03-21T00:27:29;18.70;51.90
13369;DHT22;6753;52.520;13.450;2023-03-21T00:27:40;18.70;52.40
13369;DHT22;6753;52.520;13.450;2023-03-21T00:27:50;18.70;52.60
13369;DHT22;6753;52.520;13.450;2023-03-21T00:28:02;18.70;52.70
13369;DHT22;6753;52.520;13.450;2023-03-21T00:28:12;18.70;52.70
13369;DHT22;6753;52.520;13.450;2023-03-21T00:28:24;20.90;56.00
13369;DHT22;6753;52.520;13.450;2023-03-21T00:28:34;18.70;53.00
13369;DHT22;6753;52.520;13.450;2023-03-21T00:28:45;18.70;53.00
13369;DHT22;6753;52.520;13.450;2023-03-21T00:28:56;21.00;56.50
13369;DHT22;6753;52.520;13.450;2023-03-21T00:29:08;20.90;56.60
13369;DHT22;6753;52.520;13.450;2023-03-21T00:29:20;18.70;53.30
13369;DHT22;6753;52.520;13.450;2023-03-21T00:29:31;18.70;53.40
13369;DHT22;6753;52.520;13.450;2023-03-21T00:29:41;18.70;53.00
13369;DHT22;6753;52.520;13.450;2023-03-21T00:29:53;18.70;52.80
13369;DHT22;6753;52.520;13.450;2023-03-21T00:30:04;18.80;52.90
13369;DHT22;6753;52.520;13.450;2023-03-21T00:30:15;18.80;52.90
13369;DHT22;6753;52.520;13.450;2023-03-21T00:30:27;18.80;52.70
13369;DHT22;6753;52.520;13.450;2023-03-21T00:30:39;18.80;52.60
13369;DHT22;6753;52.520;13.450;2023-03-21T00:30:50;19.10;53.00
13369;DHT22;6753;52.520;13.450;2023-03-21T00:31:01;20.80;55.50
13369;DHT22;6753;52.520;13.450;2023-03-21T00:31:11;18.80;52.60
13369;DHT22;6753;52.520;13.450;2023-03-21T00:31:22;20.40;54.80
13369;DHT22;6753;52.520;13.450;2023-03-21T00:31:33;18.80;52.60
13369;DHT22;6753;52.520;13.450;2023-03-21T00:31:44;18.80;52.50
13369;DHT22;6753;52.520;13.450;2023-03-21T00:31:56;18.80;52.50
13369;DHT22;6753;52.520;13.450;2023-03-21T00:32:06;18.80;52.80
13369;DHT22;6753;52.520;13.450;2023-03-21T00:32:18;18.80;52.90
13369;DHT22;6753;52.520;13.450;2023-03-21T00:32:29;18.80;53.10
13369;DHT22;6753;52.520;13.450;2023-03-21T00:32:40;18.80;53.00
13369;DHT22;6753;52.520;13.450;2023-03-21T00:32:51;18.80;53.00
13369;DHT22;6753;52.520;13.450;2023-03-21T00:33:02;18.80;53.00
13369;DHT22;6753;52.520;13.450;2023-03-21T00:33:13;18.80;52.90
13369;DHT22;6753;52.520;13.450;2023-03-21T00:33:25;18.80;52.80
13369;DHT22;6753;52.520;13.450;2023-03-21T00:33:36;18.90;53.00
13369;DHT22;6753;52.520;13.450;2023-03-21T00:33:48;18.90;53.00
13369;DHT22;6753;52.520;13.450;2023-03-21T00:34:00;18.90;52.90
13369;DHT22;6753;52.520;13.450;2023-03-21T00:34:11;20.00;54.60
13369;DHT22;6753;52.520;13.450;2023-03-21T00:34:22;18.90;53.00
13369;DHT22;6753;52.520;13.450;2023-03-21T00:34:32;20.60;55.50
13369;DHT22;6753;52.520;13.450;2023-03-21T00:34:48;18.90;53.00
13369;DHT22;6753;52.520;13.450;2023-03-21T00:34:59;18.90;53.00
13369;DHT22;6753;52.520;13.450;2023-03-21T00:35:10;18.90;53.10
13369;DHT22;6753;52.520;13.450;2023-03-21T00:35:21;18.90;53.10
13369;DHT22;6753;52.520;13.450;2023-03-21T00:35:31;18.90;53.00
13369;DHT22;6753;52.520;13.450;2023-03-21T00:35:42;18.90;53.10
13369;DHT22;6753;52.520;13.450;2023-03-21T00:35:54;18.90;53.20
13369;DHT22;6753;52.520;13.450;2023-03-21T00:36:06;18.90;53.20
13369;DHT22;6753;52.520;13.450;2023-03-21T00:36:18;18.90;53.20
13369;DHT22;6753;52.520;13.450;2023-03-21T00:36:28;18.90;53.30
13369;DHT22;6753;52.520;13.450;2023-03-21T00:36:39;20.80;56.00
13369;DHT22;6753;52.520;13.450;2023-03-21T00:36:50;18.90;53.30
13369;DHT22;6753;52.520;13.450;2023-03-21T00:37:01;18.90;53.10
13369;DHT22;6753;52.520;13.450;2023-03-21T00:37:12;19.60;54.20
13369;DHT22;6753;52.520;13.450;2023-03-21T00:37:26;18.90;53.10
13369;DHT22;6753;52.520;13.450;2023-03-21T00:37:37;18.90;53.20
13369;DHT22;6753;52.520;13.450;2023-03-21T00:37:48;18.90;53.20
13369;DHT22;6753;52.520;13.450;2023-03-21T00:38:00;18.90;53.20
13369;DHT22;6753;52.520;13.450;2023-03-21T00:38:11;18.90;53.20
13369;DHT22;6753;52.520;13.450;2023-03-21T00:38:23;18.90;53.30
13369;DHT22;6753;52.520;13.450;2023-03-21T00:38:34;18.90;53.40
13369;DHT22;6753;52.520;13.450;2023-03-21T00:38:45;20.30;55.50
13369;DHT22;6753;52.520;13.450;2023-03-21T00:38:56;18.90;53.50
13369;DHT22;6753;52.520;13.450;2023-03-21T00:39:07;18.90;53.50
13369;DHT22;6753;52.520;13.450;2023-03-21T00:39:18;18.90;53.40
13369;DHT22;6753;52.520;13.450;2023-03-21T00:39:29;20.40;55.60
13369;DHT22;6753;52.520;13.450;2023-03-21T00:39:41;18.90;53.50
13369;DHT22;6753;52.520;13.450;2023-03-21T00:39:54;18.90;53.50
13369;DHT22;6753;52.520;13.450;2023-03-21T00:40:06;20.20;55.40
13369;DHT22;6753;52.520;13.450;2023-03-21T00:40:19;18.90;53.60
13369;DHT22;6753;52.520;13.450;2023-03-21T00:40:30;18.90;53.60
13369;DHT22;6753;52.520;13.450;2023-03-21T00:40:40;18.90;53.70
13369;DHT22;6753;52.520;13.450;2023-03-21T00:40:51;18.90;53.80
13369;DHT22;6753;52.520;13.450;2023-03-21T00:41:04;18.90;53.90
13369;DHT22;6753;52.520;13.450;2023-03-21T00:41:15;18.90;54.00
13369;DHT22;6753;52.520;13.450;2023-03-21T00:41:26;18.90;53.90
13369;DHT22;6753;52.520;13.450;2023-03-21T00:41:37;18.90;53.80
13369;DHT22;6753;52.520;13.450;2023-03-21T00:41:49;18.90;53.70
13369;DHT22;6753;52.520;13.450;2023-03-21T00:42:00;19.00;53.90
13369;DHT22;6753;52.520;13.450;2023-03-21T00:42:11;18.90;53.80
13369;DHT22;6753;52.520;13.450;2023-03-21T00:42:22;19.00;53.90
13369;DHT22;6753;52.520;13.450;2023-03-21T00:42:33;18.90;53.70
13369;DHT22;6753;52.520;13.450;2023-03-21T00:42:44;19.00;53.90
13369;DHT22;6753;52.520;13.450;2023-03-21T00:42:55;18.90;53.80
13369;DHT22;6753;52.520;13.450;2023-03-21T00:43:05;19.00;54.00
13369;DHT22;6753;52.520;13.450;2023-03-21T00:43:17;19.00;53.90
13369;DHT22;6753;52.520;13.450;2023-03-21T00:43:28;19.00;53.90
13369;DHT22;6753;52.520;13.450;2023-03-21T00:43:39;19.00;53.90
13369;DHT22;6753;52.520;13.450;2023-03-21T00:43:50;19.00;53.90
13369;DHT22;6753;52.520;13.450;2023-03-21T00:44:04;18.90;53.70
13369;DHT22;6753;52.520;13.450;2023-03-21T00:44:15;19.00;53.90
13369;DHT22;6753;52.520;13.450;2023-03-21T00:44:28;18.90;53.80
13369;DHT22;6753;52.520;13.450;2023-03-21T00:44:39;19.00;54.10
13369;DHT22;6753;52.520;13.450;2023-03-21T00:44:51;19.80;55.10
13369;DHT22;6753;52.520;13.450;2023-03-21T00:45:01;19.00;53.90
13369;DHT22;6753;52.520;13.450;2023-03-21T00:45:13;19.00;54.00
13369;DHT22;6753;52.520;13.450;2023-03-21T00:45:26;18.90;53.90
13369;DHT22;6753;52.520;13.450;2023-03-21T00:45:36;19.00;54.20
13369;DHT22;6753;52.520;13.450;2023-03-21T00:45:47;19.00;54.20
13369;DHT22;6753;52.520;13.450;2023-03-21T00:45:58;19.00;54.70
13369;DHT22;6753;52.520;13.450;2023-03-21T00:46:09;19.00;54.10
13369;DHT22;6753;52.520;13.450;2023-03-21T00:46:20;19.00;54.10
13369;DHT22;6753;52.520;13.450;2023-03-21T00:46:31;19.00;54.20
13369;DHT22;6753;52.520;13.450;2023-03-21T00:46:42;19.00;54.10
13369;DHT22;6753;52.520;13.450;2023-03-21T00:46:54;19.00;54.20
13369;DHT22;6753;52.520;13.450;2023-03-21T00:47:05;19.00;54.10
13369;DHT22;6753;52.520;13.450;2023-03-21T00:47:16;19.00;54.10
13369;DHT22;6753;52.520;13.450;2023-03-21T00:47:27;19.00;54.10
13369;DHT22;6753;52.520;13.450;2023-03-21T00:47:38;19.00;54.10
13369;DHT22;6753;52.520;13.450;2023-03-21T00:47:48;19.00;54.10
13369;DHT22;6753;52.520;13.450;2023-03-21T00:47:59;19.00;54.20
13369;DHT22;6753;52.520;13.450;2023-03-21T00:48:10;19.00;54.20
13369;DHT22;6753;52.520;13.450;2023-03-21T00:48:23;19.00;54.20
13369;DHT22;6753;52.520;13.450;2023-03-21T00:48:33;20.70;56.70
13369;DHT22;6753;52.520;13.450;2023-03-21T00:48:44;19.00;54.50
13369;DHT22;6753;52.520;13.450;2023-03-21T00:48:55;19.00;54.40
13369;DHT22;6753;52.520;13.450;2023-03-21T00:49:06;19.00;54.50
13369;DHT22;6753;52.520;13.450;2023-03-21T00:49:17;19.00;54.40
13369;DHT22;6753;52.520;13.450;2023-03-21T00:49:29;19.00;54.30
13369;DHT22;6753;52.520;13.450;2023-03-21T00:49:43;19.00;54.30
13369;DHT22;6753;52.520;13.450;2023-03-21T00:49:53;20.80;57.00
13369;DHT22;6753;52.520;13.450;2023-03-21T00:50:06;19.00;54.40
13369;DHT22;6753;52.520;13.450;2023-03-21T00:50:17;19.00;54.50
13369;DHT22;6753;52.520;13.450;2023-03-21T00:50:28;19.00;54.60
13369;DHT22;6753;52.520;13.450;2023-03-21T00:50:39;19.00;54.40
13369;DHT22;6753;52.520;13.450;2023-03-21T00:50:51;19.00;54.30
13369;DHT22;6753;52.520;13.450;2023-03-21T00:51:10;19.00;54.20
13369;DHT22;6753;52.520;13.450;2023-03-21T00:51:23;19.10;54.30
13369;DHT22;6753;52.520;13.450;2023-03-21T00:51:35;19.00;54.30
13369;DHT22;6753;52.520;13.450;2023-03-21T00:51:46;19.10;54.60
13369;DHT22;6753;52.520;13.450;2023-03-21T00:52:00;19.00;54.30
13369;DHT22;6753;52.520;13.450;2023-03-21T00:52:11;20.00;55.70
13369;DHT22;6753;52.520;13.450;2023-03-21T00:52:23;19.00;54.20
13369;DHT22;6753;52.520;13.450;2023-03-21T00:52:34;19.00;54.40
13369;DHT22;6753;52.520;13.450;2023-03-21T00:52:45;19.00;54.20
13369;DHT22;6753;52.520;13.450;2023-03-21T00:52:56;19.00;54.20
13369;DHT22;6753;52.520;13.450;2023-03-21T00:53:07;19.00;54.30
13369;DHT22;6753;52.520;13.450;2023-03-21T00:53:18;19.00;54.50
13369;DHT22;6753;52.520;13.450;2023-03-21T00:53:29;19.00;54.40
13369;DHT22;6753;52.520;13.450;2023-03-21T00:53:41;19.00;54.40
13369;DHT22;6753;52.520;13.450;2023-03-21T00:53:53;19.00;54.40
13369;DHT22;6753;52.520;13.450;2023-03-21T00:54:05;20.10;56.00
13369;DHT22;6753;52.520;13.450;2023-03-21T00:54:17;19.00;54.30
13369;DHT22;6753;52.520;13.450;2023-03-21T00:54:28;19.10;54.80
13369;DHT22;6753;52.520;13.450;2023-03-21T00:54:39;19.00;54.70
13369;DHT22;6753;52.520;13.450;2023-03-21T00:54:49;19.00;54.50
13369;DHT22;6753;52.520;13.450;2023-03-21T00:55:00;19.00;54.40
13369;DHT22;6753;52.520;13.450;2023-03-21T00:55:13;19.00;54.40
13369;DHT22;6753;52.520;13.450;2023-03-21T00:55:25;19.00;54.50
13369;DHT22;6753;52.520;13.450;2023-03-21T00:55:36;20.50;56.50
13369;DHT22;6753;52.520;13.450;2023-03-21T00:55:48;19.00;54.20
13369;DHT22;6753;52.520;13.450;2023-03-21T00:55:59;19.00;54.70
13369;DHT22;6753;52.520;13.450;2023-03-21T00:56:09;20.50;56.80
13369;DHT22;6753;52.520;13.450;2023-03-21T00:56:20;19.00;54.60
13369;DHT22;6753;52.520;13.450;2023-03-21T00:56:31;19.00;54.60
13369;DHT22;6753;52.520;13.450;2023-03-21T00:56:43;19.00;54.60
13369;DHT22;6753;52.520;13.450;2023-03-21T00:56:54;19.00;54.30
13369;DHT22;6753;52.520;13.450;2023-03-21T00:57:04;19.00;54.20
13369;DHT22;6753;52.520;13.450;2023-03-21T00:57:15;19.00;54.30
13369;DHT22;6753;52.520;13.450;2023-03-21T00:57:28;19.00;54.30
13369;DHT22;6753;52.520;13.450;2023-03-21T00:57:38;21.10;57.40
13369;DHT22;6753;52.520;13.450;2023-03-21T00:57:49;21.30;57.70
13369;DHT22;6753;52.520;13.450;2023-03-21T00:58:00;19.00;54.40
13369;DHT22;6753;52.520;13.450;2023-03-21T00:58:11;20.80;57.20
13369;DHT22;6753;52.520;13.450;2023-03-21T00:58:23;19.00;54.50
13369;DHT22;6753;52.520;13.450;2023-03-21T00:58:33;19.00;54.50
13369;DHT22;6753;52.520;13.450;2023-03-21T00:58:44;19.00;54.40
13369;DHT22;6753;52.520;13.450;2023-03-21T00:58:55;20.10;56.10
13369;DHT22;6753;52.520;13.450;2023-03-21T00:59:06;19.00;54.40
13369;DHT22;6753;52.520;13.450;2023-03-21T00:59:16;19.00;54.50
13369;DHT22;6753;52.520;13.450;2023-03-21T00:59:29;19.00;54.50
13369;DHT22;6753;52.520;13.450;2023-03-21T00:59:40;19.00;54.50
13369;DHT22;6753;52.520;13.450;2023-03-21T00:59:51;19.20;55.00
13369;DHT22;6753;52.520;13.450;2023-03-21T01:00:01;19.00;54.80
13369;DHT22;6753;52.520;13.450;2023-03-21T01:00:18;19.00;55.60
13369;DHT22;6753;52.520;13.450;2023-03-21T01:00:30;19.00;55.20
13369;DHT22;6753;52.520;13.450;2023-03-21T01:00:42;19.00;55.10
13369;DHT22;6753;52.520;13.450;2023-03-21T01:00:53;19.00;55.10
13369;DHT22;6753;52.520;13.450;2023-03-21T01:01:04;19.00;55.10
13369;DHT22;6753;52.520;13.450;2023-03-21T01:01:16;19.00;55.20
13369;DHT22;6753;52.520;13.450;2023-03-21T01:01:27;19.00;55.00
13369;DHT22;6753;52.520;13.450;2023-03-21T01:01:41;19.60;55.70
13369;DHT22;6753;52.520;13.450;2023-03-21T01:01:52;19.10;54.80
13369;DHT22;6753;52.520;13.450;2023-03-21T01:02:03;19.00;55.00
13369;DHT22;6753;52.520;13.450;2023-03-21T01:02:16;19.00;55.10
13369;DHT22;6753;52.520;13.450;2023-03-21T01:02:32;19.00;55.20
13369;DHT22;6753;52.520;13.450;2023-03-21T01:02:43;19.00;55.20
13369;DHT22;6753;52.520;13.450;2023-03-21T01:03:07;20.00;56.60
13369;DHT22;6753;52.520;13.450;2023-03-21T01:03:18;19.10;55.20
13369;DHT22;6753;52.520;13.450;2023-03-21T01:03:30;19.10;55.20
13369;DHT22;6753;52.520;13.450;2023-03-21T01:03:44;20.00;56.50
13369;DHT22;6753;52.520;13.450;2023-03-21T01:03:57;19.10;55.20
13369;DHT22;6753;52.520;13.450;2023-03-21T01:04:14;19.10;55.10
13369;DHT22;6753;52.520;13.450;2023-03-21T01:04:27;19.00;54.90
13369;DHT22;6753;52.520;13.450;2023-03-21T01:04:38;19.00;54.90
13369;DHT22;6753;52.520;13.450;2023-03-21T01:04:48;19.00;55.00
13369;DHT22;6753;52.520;13.450;2023-03-21T01:05:00;20.20;56.70
13369;DHT22;6753;52.520;13.450;2023-03-21T01:05:11;19.00;54.90
13369;DHT22;6753;52.520;13.450;2023-03-21T01:05:22;20.00;56.40
13369;DHT22;6753;52.520;13.450;2023-03-21T01:05:53;19.10;55.20
13369;DHT22;6753;52.520;13.450;2023-03-21T01:06:14;19.50;55.90
13369;DHT22;6753;52.520;13.450;2023-03-21T01:06:28;19.00;55.10
13369;DHT22;6753;52.520;13.450;2023-03-21T01:06:41;19.00;55.00
13369;DHT22;6753;52.520;13.450;2023-03-21T01:06:53;19.00;55.10
13369;DHT22;6753;52.520;13.450;2023-03-21T01:07:04;19.10;55.20
13369;DHT22;6753;52.520;13.450;2023-03-21T01:07:15;19.00;55.00
13369;DHT22;6753;52.520;13.450;2023-03-21T01:07:25;19.00;55.00
13369;DHT22;6753;52.520;13.450;2023-03-21T01:07:36;19.10;55.20
13369;DHT22;6753;52.520;13.450;2023-03-21T01:07:47;19.10;55.10
13369;DHT22;6753;52.520;13.450;2023-03-21T01:07:58;19.10;55.20
13369;DHT22;6753;52.520;13.450;2023-03-21T01:08:09;19.10;55.20
13369;DHT22;6753;52.520;13.450;2023-03-21T01:08:25;19.10;55.30
13369;DHT22;6753;52.520;13.450;2023-03-21T01:08:39;19.00;55.10
13369;DHT22;6753;52.520;13.450;2023-03-21T01:08:50;19.10;55.20
13369;DHT22;6753;52.520;13.450;2023-03-21T01:09:01;19.00;55.10
13369;DHT22;6753;52.520;13.450;2023-03-21T01:09:14;19.00;55.00
13369;DHT22;6753;52.520;13.450;2023-03-21T01:09:25;19.00;55.00
13369;DHT22;6753;52.520;13.450;2023-03-21T01:09:37;20.80;57.70
13369;DHT22;6753;52.520;13.450;2023-03-21T01:09:48;19.10;55.30
13369;DHT22;6753;52.520;13.450;2023-03-21T01:10:00;19.10;55.40
13369;DHT22;6753;52.520;13.450;2023-03-21T01:10:11;19.00;55.20
13369;DHT22;6753;52.520;13.450;2023-03-21T01:10:21;19.10;55.20
13369;DHT22;6753;52.520;13.450;2023-03-21T01:10:33;19.00;55.10
13369;DHT22;6753;52.520;13.450;2023-03-21T01:10:48;19.10;55.30
13369;DHT22;6753;52.520;13.450;2023-03-21T01:11:05;19.00;55.20
13369;DHT22;6753;52.520;13.450;2023-03-21T01:11:18;19.10;55.30
13369;DHT22;6753;52.520;13.450;2023-03-21T01:11:30;21.40;58.70
13369;DHT22;6753;52.520;13.450;2023-03-21T01:11:41;19.10;55.20
13369;DHT22;6753;52.520;13.450;2023-03-21T01:11:52;19.10;55.20
13369;DHT22;6753;52.520;13.450;2023-03-21T01:12:03;19.10;55.70
13369;DHT22;6753;52.520;13.450;2023-03-21T01:12:14;19.10;56.00
13369;DHT22;6753;52.520;13.450;2023-03-21T01:12:25;19.10;55.80
13369;DHT22;6753;52.520;13.450;2023-03-21T01:12:37;19.10;55.50
13369;DHT22;6753;52.520;13.450;2023-03-21T01:12:47;19.10;55.60
13369;DHT22;6753;52.520;13.450;2023-03-21T01:12:59;19.10;55.70
13369;DHT22;6753;52.520;13.450;2023-03-21T01:13:11;20.20;57.20
13369;DHT22;6753;52.520;13.450;2023-03-21T01:13:23;19.10;55.90
13369;DHT22;6753;52.520;13.450;2023-03-21T01:13:34;19.10;56.00
13369;DHT22;6753;52.520;13.450;2023-03-21T01:13:45;19.10;56.00
13369;DHT22;6753;52.520;13.450;2023-03-21T01:13:57;19.10;55.90
13369;DHT22;6753;52.520;13.450;2023-03-21T01:14:08;19.10;55.80